Sunday, May 27, 2018, 3:30 PM GMT
Back to Local

CWGL, Lagoon City

Location: , , Canada Lat: 44.533
Local Time: 3:30 PM GMT (15:30 GMT) Lon: -79.217
Time Zone: GMT Elev: 725 ft

Show me the last for .
Show Coded

Time T Td Feel RH Dir Speed Gust Alt SLP Vis Weather Sky Remarks
2018-05-27 15:00 66 62 - 87 300° 3 - - 29.92 0 None
2018-05-27 14:00 65 61 - 86 230° 2 - - 29.92 0 None
2018-05-27 13:00 65 61 - 86 210° 5 - - 29.92 0 None
2018-05-27 12:00 66 60 - 81 90° 6 - - 29.91 0 None
2018-05-27 11:00 64 61 - 90 90° 5 - - 29.91 0 None
2018-05-27 10:00 62 60 - 93 60° 2 - - 29.90 0 None
2018-05-27 09:00 62 60 - 92 80° 3 - - 29.88 0 None
2018-05-27 08:00 63 61 - 92 80° 6 - - 29.87 0 None
2018-05-27 07:00 63 60 - 92 70° 6 - - 29.87 0 None
2018-05-27 06:00 63 61 - 92 70° 2 - - 29.88 0 None
2018-05-27 05:00 64 61 - 90 90° 2 - - 29.88 0 None
2018-05-27 04:00 65 61 - 89 190° 2 - - 29.87 0 None
2018-05-27 03:00 66 61 - 85 120° 2 - - 29.87 0 None
2018-05-27 02:00 66 61 - 83 130° 5 - - 29.85 0 None
2018-05-27 01:00 67 61 - 83 90° 9 - - 29.84 0 None
2018-05-27 00:00 67 62 - 83 70° 8 - - 29.83 0 None
2018-05-26 23:00 67 60 - 78 70° 1 - - 29.82 0 None
2018-05-26 22:00 67 59 - 75 160° 8 - - 29.81 0 None
2018-05-26 21:00 65 59 - 81 190° 20 25 - 29.80 0 Peak wind: 26 mph (23 kts) from 270° at 27 min
2018-05-26 20:00 76 63 78 65 340° 6 - - 29.76 0 None
2018-05-26 19:00 77 56 78 49 340° 2 - - 29.77 0 None
2018-05-26 18:00 69 62 - 76 300° 2 - - 29.78 0 None
2018-05-26 17:00 67 60 - 80 230° 7 - - 29.79 0 None
2018-05-26 16:00 66 60 - 81 220° 10 - - 29.80 0 None

Support USWX by starting your Amazon purchase here.